Time;durP1;ratioP1;P1;durP2;ratioP2;P2;SDS_P1;SDS_P2;PMS_P1;PMS_P2;Temp;Humidity;BMP_temperature;BMP_pressure;BME280_temperature;BME280_humidity;BME280_pressure;Samples;Min_cycle;Max_cycle;Signal;HPM_P1;HPM_P2
2023/01/16 00:00:55;;;;;;;;;;;;;;;6.26;87.19;99827.22;5091023;28;19967;-36
2023/01/16 00:03:20;;;;;;;;;;;;;;;6.46;86.73;99828.44;5090894;28;20010;-36
2023/01/16 00:05:45;;;;;;;;;;;;;;;6.32;87.53;99829.19;5091089;28;19926;-37
2023/01/16 00:08:11;;;;;;;;;;;;;;;6.36;87.19;99829.66;5091511;28;19912;-34
2023/01/16 00:10:36;;;;;;;;;;;;;;;6.44;87.79;99819.88;5091731;28;19912;-35
2023/01/16 00:13:01;;;;;;;;;;;;;;;6.47;86.23;99818.69;5091375;28;20433;-34
2023/01/16 00:15:27;;;;;;;;;;;;;;;6.32;86.91;99818.63;5091514;28;19913;-36
2023/01/16 00:17:52;;;;;;;;;;;;;;;6.62;86.53;99813.47;5091468;28;19923;-36
2023/01/16 00:20:17;;;;;;;;;;;;;;;6.54;86.10;99809.06;5091196;28;20371;-36
2023/01/16 00:22:43;;;;;;;;;;;;;;;6.61;85.79;99807.38;5091336;28;19930;-35
2023/01/16 00:25:09;;;;;;;;;;;;;;;6.56;85.27;99811.53;5091370;28;20316;-36
2023/01/16 00:27:34;;;;;;;;;;;;;;;6.57;85.62;99807.91;5091515;28;19915;-36
2023/01/16 00:29:59;;;;;;;;;;;;;;;6.56;86.03;99807.06;5091210;28;19999;-36
2023/01/16 00:32:25;;;;;;;;;;;;;;;6.44;86.19;99804.00;5090976;28;19923;-37
2023/01/16 00:34:50;;;;;;;;;;;;;;;6.20;87.27;99806.78;5091182;28;20350;-37
2023/01/16 00:37:15;;;;;;;;;;;;;;;6.42;86.11;99805.19;5091319;28;19916;-36
2023/01/16 00:39:40;;;;;;;;;;;;;;;6.27;86.81;99813.03;5090993;28;19912;-36
2023/01/16 00:42:06;;;;;;;;;;;;;;;6.55;85.79;99810.72;5091306;28;19964;-36
2023/01/16 00:44:32;;;;;;;;;;;;;;;6.29;85.77;99807.56;5091220;28;19912;-36
2023/01/16 00:46:57;;;;;;;;;;;;;;;5.53;89.76;99800.09;5090560;28;19912;-37
2023/01/16 00:49:22;;;;;;;;;;;;;;;5.75;88.90;99797.69;5091063;28;19912;-36
2023/01/16 00:51:48;;;;;;;;;;;;;;;5.71;90.09;99794.56;5091172;28;19923;-36
2023/01/16 00:54:13;;;;;;;;;;;;;;;5.89;88.44;99791.72;5091139;28;20323;-36
2023/01/16 00:56:38;;;;;;;;;;;;;;;5.76;88.98;99794.06;5090633;28;19936;-36
2023/01/16 00:59:04;;;;;;;;;;;;;;;5.58;88.67;99781.94;5090331;28;20363;-36
2023/01/16 01:01:29;;;;;;;;;;;;;;;5.70;89.13;99787.66;5090973;28;20276;-36
2023/01/16 01:03:54;;;;;;;;;;;;;;;5.95;87.27;99785.78;5090767;28;19912;-36
2023/01/16 01:06:20;;;;;;;;;;;;;;;5.74;87.96;99788.97;5090853;28;19919;-36
2023/01/16 01:08:45;;;;;;;;;;;;;;;5.90;87.83;99787.25;5090467;28;19912;-36
2023/01/16 01:11:12;;;;;;;;;;;;;;;5.99;87.47;99780.97;5093533;28;19934;-36
2023/01/16 01:13:37;;;;;;;;;;;;;;;5.96;85.77;99795.34;5094857;28;19919;-36
2023/01/16 01:16:02;;;;;;;;;;;;;;;6.08;85.90;99793.16;5094836;28;19912;-36
2023/01/16 01:18:28;;;;;;;;;;;;;;;5.98;86.40;99793.38;5094195;28;19927;-36
2023/01/16 01:20:53;;;;;;;;;;;;;;;6.09;85.90;99786.84;5094379;28;19916;-36
2023/01/16 01:23:18;;;;;;;;;;;;;;;5.96;86.05;99789.22;5094384;28;20284;-36
2023/01/16 01:25:44;;;;;;;;;;;;;;;5.81;86.90;99781.19;5094817;28;20364;-37
2023/01/16 01:28:09;;;;;;;;;;;;;;;5.85;86.83;99782.50;5094287;28;19962;-37
2023/01/16 01:30:34;;;;;;;;;;;;;;;5.72;87.29;99774.28;5094389;28;20022;-37
2023/01/16 01:33:00;;;;;;;;;;;;;;;5.50;88.70;99774.03;5094455;28;20370;-37
2023/01/16 01:35:25;;;;;;;;;;;;;;;5.77;87.73;99770.16;5094092;28;20298;-37
2023/01/16 01:37:50;;;;;;;;;;;;;;;5.82;86.21;99764.34;5094196;28;20279;-36
2023/01/16 01:40:16;;;;;;;;;;;;;;;5.76;86.10;99772.94;5093914;28;20020;-36
2023/01/16 01:42:51;;;;;;;;;;;;;;;5.78;85.53;99770.97;5093494;28;19912;-36
2023/01/16 01:45:27;;;;;;;;;;;;;;;5.68;86.32;99769.34;5093552;28;19919;-37
2023/01/16 01:47:55;;;;;;;;;;;;;;;5.65;86.78;99772.34;5093882;28;19968;-37
2023/01/16 01:50:34;;;;;;;;;;;;;;;5.64;86.41;99759.31;5093962;28;19912;-37
2023/01/16 01:53:02;;;;;;;;;;;;;;;5.70;87.01;99760.44;5093685;28;20617;-37
2023/01/16 01:55:27;;;;;;;;;;;;;;;5.75;87.87;99763.38;5093591;28;19912;-37
2023/01/16 01:57:55;;;;;;;;;;;;;;;5.64;88.00;99765.41;5093828;28;19912;-37
2023/01/16 02:00:22;;;;;;;;;;;;;;;5.83;87.40;99761.53;5093786;28;20408;-37
2023/01/16 02:03:00;;;;;;;;;;;;;;;5.88;86.06;99753.91;5093845;28;19912;-36
2023/01/16 02:05:28;;;;;;;;;;;;;;;5.81;87.37;99750.31;5093576;28;19912;-37
2023/01/16 02:07:54;;;;;;;;;;;;;;;5.94;86.42;99751.56;5093305;28;19912;-37
2023/01/16 02:10:29;;;;;;;;;;;;;;;6.01;86.10;99747.28;5093287;28;19912;-36
2023/01/16 02:12:54;;;;;;;;;;;;;;;6.02;85.47;99751.56;5093414;28;19920;-36
2023/01/16 02:15:22;;;;;;;;;;;;;;;5.84;86.86;99757.88;5093547;28;19912;-37
2023/01/16 02:20:36;;;;;;;;;;;;;;;5.79;87.88;99754.13;5093848;28;19930;-36
2023/01/16 02:23:13;;;;;;;;;;;;;;;5.71;88.79;99751.50;5092368;28;19974;-36
2023/01/16 02:25:54;;;;;;;;;;;;;;;5.71;88.49;99756.78;5093383;28;20308;-36
2023/01/16 02:28:34;;;;;;;;;;;;;;;5.91;87.61;99744.81;5093212;28;19912;-37
2023/01/16 02:31:02;;;;;;;;;;;;;;;5.62;88.46;99753.38;5093493;28;19912;-36
2023/01/16 02:33:46;;;;;;;;;;;;;;;5.30;90.25;99747.19;5092850;28;19935;-36
2023/01/16 02:36:16;;;;;;;;;;;;;;;5.42;89.79;99755.56;5092978;28;19951;-36
2023/01/16 02:38:44;;;;;;;;;;;;;;;5.67;89.07;99754.50;5093099;28;19912;-36
2023/01/16 02:41:15;;;;;;;;;;;;;;;5.59;88.97;99749.25;5092982;28;19919;-37
2023/01/16 02:43:46;;;;;;;;;;;;;;;5.77;89.30;99759.59;5093095;28;19996;-36
2023/01/16 02:46:19;;;;;;;;;;;;;;;5.64;88.62;99760.13;5093146;28;19952;-36
2023/01/16 02:48:49;;;;;;;;;;;;;;;5.63;88.56;99758.47;5092524;28;19955;-36
2023/01/16 02:51:23;;;;;;;;;;;;;;;5.67;89.37;99759.78;5092850;28;20352;-36
2023/01/16 02:53:53;;;;;;;;;;;;;;;5.45;89.51;99753.41;5092893;28;19919;-36
2023/01/16 02:56:22;;;;;;;;;;;;;;;5.61;89.89;99759.63;5092969;28;19919;-36
2023/01/16 02:58:48;;;;;;;;;;;;;;;5.57;89.44;99759.16;5092683;28;19938;-37
2023/01/16 03:01:13;;;;;;;;;;;;;;;5.76;89.30;99760.56;5092273;28;19912;-37
2023/01/16 03:03:44;;;;;;;;;;;;;;;5.86;88.13;99747.16;5092481;28;19918;-37
2023/01/16 03:06:12;;;;;;;;;;;;;;;5.64;89.54;99748.75;5092361;28;20376;-37
2023/01/16 03:08:52;;;;;;;;;;;;;;;5.74;89.03;99738.78;5092504;28;19912;-37
2023/01/16 03:11:22;;;;;;;;;;;;;;;5.56;89.91;99744.31;5092318;28;19912;-37
2023/01/16 03:14:20;;;;;;;;;;;;;;;5.80;89.03;99739.91;5092218;28;19919;-37
2023/01/16 03:16:48;;;;;;;;;;;;;;;5.65;89.73;99724.81;5079747;28;19991;-37
2023/01/16 03:19:25;;;;;;;;;;;;;;;5.58;90.04;99715.09;5092148;28;20007;-36
2023/01/16 03:22:11;;;;;;;;;;;;;;;5.39;91.48;99725.06;5092348;28;19912;-37
2023/01/16 03:24:42;;;;;;;;;;;;;;;5.54;90.54;99725.19;5091693;28;19946;-37
2023/01/16 03:27:25;;;;;;;;;;;;;;;5.39;90.79;99729.53;5092421;28;19935;-37
2023/01/16 03:29:53;;;;;;;;;;;;;;;5.33;91.53;99723.13;5091801;28;19998;-37
2023/01/16 03:32:40;;;;;;;;;;;;;;;5.42;91.66;99719.44;5101273;28;19916;-37
2023/01/16 03:35:06;;;;;;;;;;;;;;;5.48;90.85;99717.94;5112427;28;19968;-37
2023/01/16 03:37:31;;;;;;;;;;;;;;;5.42;90.10;99715.97;5098670;28;19928;-37
2023/01/16 03:40:00;;;;;;;;;;;;;;;5.44;90.17;99711.34;5089523;28;20393;-36
2023/01/16 03:42:30;;;;;;;;;;;;;;;5.44;89.91;99706.06;5110868;28;20088;-36
2023/01/16 03:44:59;;;;;;;;;;;;;;;5.78;88.73;99703.13;5110443;28;19913;-36
2023/01/16 03:47:30;;;;;;;;;;;;;;;5.74;88.91;99693.91;5103219;28;19916;-43
2023/01/16 03:49:58;;;;;;;;;;;;;;;5.70;89.50;99697.88;5106274;28;19976;-43
2023/01/16 03:52:27;;;;;;;;;;;;;;;5.54;89.95;99701.44;5095210;28;19959;-42
2023/01/16 03:55:19;;;;;;;;;;;;;;;5.39;90.54;99698.69;5091865;28;19922;-42
2023/01/16 03:57:53;;;;;;;;;;;;;;;5.55;90.29;99692.50;5089520;28;19924;-43
2023/01/16 04:00:19;;;;;;;;;;;;;;;5.41;90.58;99688.78;5095814;28;20023;-42
2023/01/16 04:02:52;;;;;;;;;;;;;;;5.58;89.41;99692.19;5091563;28;19923;-42
2023/01/16 04:05:24;;;;;;;;;;;;;;;5.36;89.64;99699.00;5091855;28;19919;-42
2023/01/16 04:08:08;;;;;;;;;;;;;;;5.55;90.78;99696.97;5091736;28;20352;-42
2023/01/16 04:10:35;;;;;;;;;;;;;;;5.20;90.84;99664.78;5091630;28;19912;-41
2023/01/16 04:13:06;;;;;;;;;;;;;;;5.16;91.84;99685.41;5089264;28;20005;-42
2023/01/16 04:15:33;;;;;;;;;;;;;;;5.34;91.89;99689.63;5085536;28;19959;-43
2023/01/16 04:17:59;;;;;;;;;;;;;;;5.42;90.79;99677.22;5090264;28;19939;-37
2023/01/16 04:20:25;;;;;;;;;;;;;;;5.25;91.43;99665.06;5091365;28;20348;-36
2023/01/16 04:22:50;;;;;;;;;;;;;;;5.16;92.91;99664.31;5091372;28;20319;-36
2023/01/16 04:25:16;;;;;;;;;;;;;;;5.38;91.17;99661.91;5109642;28;19926;-36
2023/01/16 04:27:42;;;;;;;;;;;;;;;5.27;91.70;99655.19;5111825;28;19919;-36
2023/01/16 04:30:08;;;;;;;;;;;;;;;5.37;91.33;99652.31;5111928;28;19950;-36
2023/01/16 04:32:33;;;;;;;;;;;;;;;5.30;91.60;99662.75;5084284;28;19999;-42
2023/01/16 04:34:58;;;;;;;;;;;;;;;5.43;90.23;99656.94;5071362;28;19916;-42
2023/01/16 04:37:24;;;;;;;;;;;;;;;6.40;97.95;99654.69;5069235;28;20323;-41
2023/01/16 04:39:49;;;;;;;;;;;;;;;7.13;94.16;99651.47;5070293;28;19913;-42
2023/01/16 04:42:14;;;;;;;;;;;;;;;7.13;87.44;99651.47;5070878;28;19958;-43
2023/01/16 04:44:40;;;;;;;;;;;;;;;6.97;86.42;99655.13;5071282;28;20380;-43
2023/01/16 04:47:05;;;;;;;;;;;;;;;6.86;83.36;99648.47;5080385;28;19919;-42
2023/01/16 04:49:30;;;;;;;;;;;;;;;6.24;85.44;99647.72;5094170;28;20371;-42
2023/01/16 04:51:56;;;;;;;;;;;;;;;7.42;83.42;99648.81;5093275;28;20414;-41
2023/01/16 04:54:21;;;;;;;;;;;;;;;6.89;83.74;99647.25;5093291;28;20060;-42
2023/01/16 04:56:46;;;;;;;;;;;;;;;6.57;85.48;99643.97;5093164;28;19920;-42
2023/01/16 04:59:18;;;;;;;;;;;;;;;6.18;87.90;99647.59;5093473;28;19915;-42
2023/01/16 05:01:43;;;;;;;;;;;;;;;6.03;88.41;99642.25;5093708;28;20512;-42
2023/01/16 05:04:11;;;;;;;;;;;;;;;6.10;88.33;99640.53;5093745;28;19912;-42
2023/01/16 05:06:36;;;;;;;;;;;;;;;5.93;89.01;99646.91;5094683;28;19919;-42
2023/01/16 05:09:03;;;;;;;;;;;;;;;5.98;88.84;99644.63;5094797;28;19912;-42
2023/01/16 05:11:28;;;;;;;;;;;;;;;5.77;89.74;99640.75;5094580;28;20398;-42
2023/01/16 05:13:53;;;;;;;;;;;;;;;5.71;90.37;99649.34;5094974;28;19912;-42
2023/01/16 05:16:19;;;;;;;;;;;;;;;5.80;90.64;99653.59;5094829;28;19919;-42
2023/01/16 05:18:44;;;;;;;;;;;;;;;5.77;90.22;99647.81;5094344;28;19924;-42
2023/01/16 05:21:09;;;;;;;;;;;;;;;5.77;91.09;99653.09;5094368;28;20007;-42
2023/01/16 05:23:35;;;;;;;;;;;;;;;5.74;90.31;99646.38;5094275;28;19920;-42
2023/01/16 05:26:01;;;;;;;;;;;;;;;5.70;90.68;99650.34;5094589;28;19926;-42
2023/01/16 05:28:26;;;;;;;;;;;;;;;5.80;90.41;99640.38;5094020;28;19936;-42
2023/01/16 05:30:52;;;;;;;;;;;;;;;6.23;90.10;99634.69;5094195;28;19916;-42
2023/01/16 05:33:17;;;;;;;;;;;;;;;6.44;89.48;99634.00;5077342;28;19920;-42
2023/01/16 05:35:44;;;;;;;;;;;;;;;6.11;89.55;99622.88;5086209;28;19955;-43
2023/01/16 05:38:09;;;;;;;;;;;;;;;6.16;87.67;99629.25;5093930;28;19915;-42
2023/01/16 05:40:34;;;;;;;;;;;;;;;5.93;89.43;99617.88;5093554;28;20311;-41
2023/01/16 05:42:59;;;;;;;;;;;;;;;5.77;90.53;99613.50;5093973;28;20003;-44
2023/01/16 05:45:25;;;;;;;;;;;;;;;6.40;87.26;99622.16;5092911;28;20280;-43
2023/01/16 05:47:50;;;;;;;;;;;;;;;6.11;88.20;99607.84;5092856;28;20016;-43
2023/01/16 05:50:15;;;;;;;;;;;;;;;5.87;89.40;99612.28;5092960;28;19934;-43
2023/01/16 05:52:41;;;;;;;;;;;;;;;6.10;88.62;99619.41;5091488;28;19923;-42
2023/01/16 05:55:06;;;;;;;;;;;;;;;6.04;88.05;99617.47;5092844;28;20014;-42
2023/01/16 05:57:31;;;;;;;;;;;;;;;5.78;90.23;99618.59;5091697;28;19919;-44
2023/01/16 05:59:57;;;;;;;;;;;;;;;6.57;86.49;99622.81;5093056;28;20318;-43
2023/01/16 06:02:22;;;;;;;;;;;;;;;6.49;85.93;99620.22;5092462;28;19926;-42
2023/01/16 06:04:47;;;;;;;;;;;;;;;6.14;87.34;99618.06;5092997;28;19920;-43
2023/01/16 06:07:13;;;;;;;;;;;;;;;6.00;88.26;99613.56;5092672;28;19961;-42
2023/01/16 06:09:38;;;;;;;;;;;;;;;6.03;89.54;99608.72;5092782;28;19969;-41
2023/01/16 06:12:04;;;;;;;;;;;;;;;6.03;88.28;99605.25;5092557;28;19958;-42
2023/01/16 06:14:29;;;;;;;;;;;;;;;6.77;85.88;99615.97;5092873;28;19912;-43
2023/01/16 06:16:54;;;;;;;;;;;;;;;6.21;86.99;99613.72;5092745;28;19923;-42
2023/01/16 06:19:19;;;;;;;;;;;;;;;6.17;87.82;99614.22;5092542;28;19931;-43
2023/01/16 06:21:45;;;;;;;;;;;;;;;5.85;88.70;99613.47;5092251;28;19939;-42
2023/01/16 06:24:10;;;;;;;;;;;;;;;5.78;89.12;99613.31;5092373;28;20354;-41
2023/01/16 06:26:35;;;;;;;;;;;;;;;6.20;88.85;99619.16;5092117;28;19931;-42
2023/01/16 06:29:01;;;;;;;;;;;;;;;6.40;86.09;99616.84;5092362;28;19916;-42
2023/01/16 06:31:26;;;;;;;;;;;;;;;5.95;87.25;99611.44;5092526;28;19954;-41
2023/01/16 06:33:51;;;;;;;;;;;;;;;5.70;89.29;99605.47;5090948;28;20018;-41
2023/01/16 06:36:17;;;;;;;;;;;;;;;5.78;90.04;99610.69;5092403;28;20265;-41
2023/01/16 06:38:42;;;;;;;;;;;;;;;5.96;89.60;99606.97;5092323;28;19918;-42
2023/01/16 06:41:07;;;;;;;;;;;;;;;6.58;85.80;99616.50;5091940;28;20399;-42
2023/01/16 06:43:32;;;;;;;;;;;;;;;6.30;86.03;99605.69;5092017;28;20003;-41
2023/01/16 06:45:58;;;;;;;;;;;;;;;6.16;86.08;99610.78;5092336;28;19935;-41
2023/01/16 06:48:23;;;;;;;;;;;;;;;5.87;87.96;99603.53;5092189;28;19912;-42
2023/01/16 06:50:49;;;;;;;;;;;;;;;6.13;86.87;99605.84;5092159;28;19918;-42
2023/01/16 06:53:14;;;;;;;;;;;;;;;6.56;84.84;99600.00;5092044;28;19927;-42
2023/01/16 06:55:40;;;;;;;;;;;;;;;6.43;85.26;99600.63;5091352;28;19935;-42
2023/01/16 06:58:06;;;;;;;;;;;;;;;6.24;85.67;99594.00;5091733;28;19912;-41
2023/01/16 07:00:33;;;;;;;;;;;;;;;6.34;84.58;99591.97;5091999;28;20236;-42
2023/01/16 07:02:59;;;;;;;;;;;;;;;6.08;86.23;99592.34;5092057;28;19919;-41
2023/01/16 07:05:25;;;;;;;;;;;;;;;6.17;87.58;99588.66;5092298;28;19916;-42
2023/01/16 07:07:51;;;;;;;;;;;;;;;6.54;83.39;99584.31;5091518;28;19912;-42
2023/01/16 07:10:16;;;;;;;;;;;;;;;6.40;80.88;99587.78;5091574;28;19969;-42
2023/01/16 07:12:42;;;;;;;;;;;;;;;6.41;80.99;99581.47;5091906;28;19916;-42
2023/01/16 07:23:34;;;;;;;;;;;;;;;6.36;81.48;99538.91;5057906;28;19949;-42
2023/01/16 07:26:02;;;;;;;;;;;;;;;6.17;84.82;99556.09;5091821;28;20062;-42
2023/01/16 07:28:28;;;;;;;;;;;;;;;5.95;84.69;99542.75;5091889;28;19919;-42
2023/01/16 07:30:54;;;;;;;;;;;;;;;5.62;83.92;99511.31;5091508;28;19916;-42
2023/01/16 07:33:19;;;;;;;;;;;;;;;5.75;84.90;99534.47;5091538;28;19923;-42
2023/01/16 07:35:45;;;;;;;;;;;;;;;6.42;83.05;99540.84;5091547;28;19912;-42
2023/01/16 07:38:10;;;;;;;;;;;;;;;6.45;82.10;99541.31;5091723;28;19916;-42
2023/01/16 07:40:36;;;;;;;;;;;;;;;6.61;83.51;99534.19;5090437;28;19969;-43
2023/01/16 07:43:01;;;;;;;;;;;;;;;6.85;82.25;99535.69;5091455;28;20003;-42
2023/01/16 07:45:26;;;;;;;;;;;;;;;6.88;81.62;99538.00;5091144;28;19977;-41
2023/01/16 07:47:51;;;;;;;;;;;;;;;7.00;80.85;99536.50;5090620;28;19962;-42
2023/01/16 07:50:17;;;;;;;;;;;;;;;7.58;79.13;99528.59;5091041;28;19962;-42
2023/01/16 07:52:43;;;;;;;;;;;;;;;7.31;80.00;99524.03;5091164;28;20372;-42
2023/01/16 07:55:08;;;;;;;;;;;;;;;7.30;79.45;99519.75;5091193;28;20307;-42
2023/01/16 07:57:37;;;;;;;;;;;;;;;7.07;80.46;99519.91;5091138;28;19912;-42
2023/01/16 08:00:03;;;;;;;;;;;;;;;6.79;81.10;99512.66;5091084;28;19943;-43
2023/01/16 08:02:29;;;;;;;;;;;;;;;7.47;78.60;99515.03;5090564;28;19919;-42
2023/01/16 08:04:54;;;;;;;;;;;;;;;6.95;80.78;99516.91;5090602;28;19912;-42
2023/01/16 08:07:19;;;;;;;;;;;;;;;6.76;82.12;99516.50;5090984;28;19915;-41
2023/01/16 08:09:45;;;;;;;;;;;;;;;6.39;80.67;99528.78;5089698;28;19916;-42
2023/01/16 08:12:10;;;;;;;;;;;;;;;6.53;81.51;99540.38;5090319;28;20018;-42
2023/01/16 08:14:35;;;;;;;;;;;;;;;6.40;80.61;99542.84;5091253;28;20015;-43
2023/01/16 08:17:01;;;;;;;;;;;;;;;7.12;77.75;99555.41;5090774;28;19934;-42
2023/01/16 08:19:26;;;;;;;;;;;;;;;7.09;76.94;99570.81;5090528;28;19958;-43
2023/01/16 08:21:52;;;;;;;;;;;;;;;7.48;75.36;99573.06;5094864;28;19916;-43
2023/01/16 08:24:18;;;;;;;;;;;;;;;7.49;74.69;99574.72;5095061;28;19912;-42
2023/01/16 08:26:43;;;;;;;;;;;;;;;7.30;74.39;99570.03;5095086;28;19981;-42
2023/01/16 08:29:09;;;;;;;;;;;;;;;7.11;75.50;99563.50;5094448;28;19916;-42
2023/01/16 08:31:34;;;;;;;;;;;;;;;7.89;73.53;99553.94;5094954;28;19920;-41
2023/01/16 08:33:59;;;;;;;;;;;;;;;7.97;72.47;99555.63;5094992;28;19954;-42
2023/01/16 08:36:25;;;;;;;;;;;;;;;7.39;73.56;99553.84;5094377;28;19997;-42
2023/01/16 08:38:50;;;;;;;;;;;;;;;7.47;74.61;99538.88;5092884;28;19912;-41
2023/01/16 08:52:16;;;;;;;;;;;;;;;7.28;76.65;99543.75;5094760;28;19923;-42
2023/01/16 08:54:43;;;;;;;;;;;;;;;7.10;77.40;99536.25;5094540;28;19920;-42
2023/01/16 08:57:09;;;;;;;;;;;;;;;6.91;76.80;99524.41;5094587;28;19912;-42
2023/01/16 08:59:35;;;;;;;;;;;;;;;7.24;75.92;99505.44;5094195;28;20353;-43
2023/01/16 09:02:01;;;;;;;;;;;;;;;7.60;74.12;99515.16;5094224;28;19912;-43
2023/01/16 09:04:26;;;;;;;;;;;;;;;7.42;75.38;99513.78;5094187;28;20299;-43
2023/01/16 09:06:53;;;;;;;;;;;;;;;7.47;74.82;99505.25;5094091;28;19916;-43
2023/01/16 09:09:19;;;;;;;;;;;;;;;7.94;74.28;99503.84;5094139;28;19918;-42
2023/01/16 09:14:28;;;;;;;;;;;;;;;8.30;73.90;99512.63;5094399;28;20311;-41
2023/01/16 09:16:53;;;;;;;;;;;;;;;8.19;72.01;99498.91;5093867;28;19928;-42
2023/01/16 09:19:18;;;;;;;;;;;;;;;7.73;73.11;99504.69;5093565;28;19973;-43
2023/01/16 09:21:44;;;;;;;;;;;;;;;7.63;73.88;99501.53;5094093;28;19981;-42
2023/01/16 09:24:09;;;;;;;;;;;;;;;7.27;75.36;99489.16;5093766;28;20287;-43
2023/01/16 09:26:34;;;;;;;;;;;;;;;6.95;76.66;99480.69;5093438;28;20411;-43
2023/01/16 09:28:59;;;;;;;;;;;;;;;7.74;75.15;99486.97;5093793;28;19912;-42
2023/01/16 09:31:25;;;;;;;;;;;;;;;7.68;75.19;99482.44;5093933;28;20344;-43
2023/01/16 09:33:52;;;;;;;;;;;;;;;7.70;74.44;99483.06;5093583;28;19912;-42
2023/01/16 09:36:17;;;;;;;;;;;;;;;7.46;75.24;99471.84;5093244;28;20409;-41
2023/01/16 09:38:42;;;;;;;;;;;;;;;7.17;77.10;99470.13;5093441;28;19912;-41
2023/01/16 09:41:11;;;;;;;;;;;;;;;7.40;75.96;99470.75;5092848;28;19961;-42
2023/01/16 09:43:41;;;;;;;;;;;;;;;7.97;73.66;99468.19;5093391;28;19974;-42
2023/01/16 09:46:15;;;;;;;;;;;;;;;7.93;73.34;99459.78;5093346;28;19916;-42
2023/01/16 09:48:40;;;;;;;;;;;;;;;7.52;75.75;99449.91;5093524;28;19912;-42
2023/01/16 09:51:08;;;;;;;;;;;;;;;7.51;75.76;99444.81;5093376;28;19957;-42
2023/01/16 09:59:32;;;;;;;;;;;;;;;7.12;77.55;99427.53;5093705;28;19968;-42
2023/01/16 10:02:12;;;;;;;;;;;;;;;7.25;76.93;99417.06;5093075;28;19999;-43
2023/01/16 10:04:38;;;;;;;;;;;;;;;6.95;77.98;99417.22;5091557;28;19912;-42
2023/01/16 10:07:03;;;;;;;;;;;;;;;7.17;77.25;99422.50;5092765;28;19919;-42
2023/01/16 10:09:31;;;;;;;;;;;;;;;6.72;78.84;99419.16;5093042;28;19920;-42
2023/01/16 10:11:56;;;;;;;;;;;;;;;7.60;75.67;99423.28;5092681;28;19967;-42
2023/01/16 10:14:40;;;;;;;;;;;;;;;7.31;75.93;99411.03;5092574;28;20398;-42
2023/01/16 10:17:23;;;;;;;;;;;;;;;7.28;76.61;99416.69;5092789;28;19920;-43
2023/01/16 10:19:49;;;;;;;;;;;;;;;7.27;77.16;99414.25;5092475;28;19949;-41
2023/01/16 10:22:24;;;;;;;;;;;;;;;7.63;75.63;99407.03;5092878;28;20132;-42
2023/01/16 10:24:55;;;;;;;;;;;;;;;7.86;75.43;99407.78;5092333;28;19919;-42
2023/01/16 10:27:32;;;;;;;;;;;;;;;7.79;73.59;99405.91;5092550;28;19966;-42
2023/01/16 10:30:13;;;;;;;;;;;;;;;7.01;78.11;99397.94;5091951;28;19912;-43
2023/01/16 10:32:43;;;;;;;;;;;;;;;7.27;76.34;99399.16;5091804;28;19955;-42
2023/01/16 10:35:11;;;;;;;;;;;;;;;7.27;76.41;99393.88;5092494;28;19941;-42
2023/01/16 10:37:38;;;;;;;;;;;;;;;7.70;74.57;99379.75;5092368;28;19912;-43
2023/01/16 10:40:29;;;;;;;;;;;;;;;7.19;76.86;99378.94;5092112;28;19969;-42
2023/01/16 10:51:13;;;;;;;;;;;;;;;6.47;78.08;99369.25;5092124;28;19969;-43
2023/01/16 10:53:38;;;;;;;;;;;;;;;6.82;78.78;99362.34;5091778;28;19916;-41
2023/01/16 10:56:04;;;;;;;;;;;;;;;6.71;78.11;99348.78;5091806;28;20417;-42
2023/01/16 10:58:35;;;;;;;;;;;;;;;7.03;77.35;99337.69;5091618;28;20371;-42
2023/01/16 11:01:02;;;;;;;;;;;;;;;6.80;79.06;99343.19;5091637;28;20252;-42
2023/01/16 11:03:39;;;;;;;;;;;;;;;6.80;79.54;99339.72;5091739;28;19912;-43
2023/01/16 11:06:35;;;;;;;;;;;;;;;6.96;79.28;99334.16;5092091;28;19912;-42
2023/01/16 11:09:00;;;;;;;;;;;;;;;6.89;79.21;99322.69;5082798;28;19919;-42
2023/01/16 11:19:42;;;;;;;;;;;;;;;6.70;79.02;99307.47;5091509;28;20371;-43
2023/01/16 11:22:21;;;;;;;;;;;;;;;6.43;80.18;99310.66;5091689;28;19999;-42
2023/01/16 11:24:47;;;;;;;;;;;;;;;6.25;80.62;99307.63;5091376;28;19912;-42
2023/01/16 11:27:15;;;;;;;;;;;;;;;6.61;80.75;99318.19;5091541;28;20010;-42
2023/01/16 11:29:42;;;;;;;;;;;;;;;6.45;81.93;99307.84;5091456;28;19993;-42
2023/01/16 11:32:10;;;;;;;;;;;;;;;6.48;80.28;99306.66;5090574;28;19916;-42
2023/01/16 11:34:36;;;;;;;;;;;;;;;7.39;78.17;99305.00;5091235;28;19930;-42
2023/01/16 11:37:03;;;;;;;;;;;;;;;7.30;76.76;99302.69;5090925;28;19912;-43
2023/01/16 11:39:29;;;;;;;;;;;;;;;7.01;77.84;99302.69;5090981;28;19912;-42
2023/01/16 11:41:56;;;;;;;;;;;;;;;6.72;80.15;99294.88;5091427;28;19912;-41
2023/01/16 11:47:12;;;;;;;;;;;;;;;6.36;81.62;99298.38;5091334;28;19934;-44
2023/01/16 11:49:43;;;;;;;;;;;;;;;6.33;81.90;99282.91;5091254;28;19920;-42
2023/01/16 11:52:26;;;;;;;;;;;;;;;6.40;81.93;99286.44;5091220;28;19923;-44
2023/01/16 11:54:53;;;;;;;;;;;;;;;6.47;80.85;99284.66;5091420;28;19959;-42
2023/01/16 11:57:25;;;;;;;;;;;;;;;6.85;80.97;99287.06;5091041;28;19922;-42
2023/01/16 11:59:56;;;;;;;;;;;;;;;6.43;81.24;99291.34;5090994;28;19919;-42
2023/01/16 12:02:40;;;;;;;;;;;;;;;6.65;80.89;99293.00;5089912;28;19920;-42
2023/01/16 12:08:06;;;;;;;;;;;;;;;6.85;79.56;99276.47;5090626;28;19922;-43
2023/01/16 12:10:34;;;;;;;;;;;;;;;7.26;79.69;99272.34;5090432;28;20287;-42
2023/01/16 12:16:14;;;;;;;;;;;;;;;7.68;76.16;99270.53;5091117;28;20424;-42
2023/01/16 12:18:47;;;;;;;;;;;;;;;7.48;76.89;99265.94;5087344;28;19927;-43
2023/01/16 12:21:27;;;;;;;;;;;;;;;7.07;78.58;99250.00;5090644;28;20411;-42
2023/01/16 12:23:58;;;;;;;;;;;;;;;6.91;78.50;99240.50;5089311;28;20310;-42
2023/01/16 12:26:35;;;;;;;;;;;;;;;6.76;79.13;99238.78;5088117;28;19953;-43
2023/01/16 12:29:13;;;;;;;;;;;;;;;6.93;78.99;99241.13;5090325;28;19913;-42
2023/01/16 12:31:53;;;;;;;;;;;;;;;7.64;76.99;99238.34;5090347;28;20356;-43
2023/01/16 12:34:19;;;;;;;;;;;;;;;7.32;75.47;99239.78;5090344;28;19916;-43
2023/01/16 12:37:00;;;;;;;;;;;;;;;7.05;77.13;99242.25;5090727;28;19961;-42
2023/01/16 12:39:42;;;;;;;;;;;;;;;6.89;77.54;99201.03;5088391;28;19912;-42
2023/01/16 12:45:15;;;;;;;;;;;;;;;8.04;74.05;99241.16;5090869;28;19918;-42
2023/01/16 12:47:40;;;;;;;;;;;;;;;7.88;73.50;99238.84;5087885;28;19916;-42
2023/01/16 12:50:22;;;;;;;;;;;;;;;7.74;74.32;99232.69;5088758;28;20405;-42
2023/01/16 12:53:06;;;;;;;;;;;;;;;7.87;73.83;99245.97;5098772;28;19919;-42
2023/01/16 12:55:43;;;;;;;;;;;;;;;7.55;75.54;99248.25;5097059;28;19969;-42
2023/01/16 12:58:15;;;;;;;;;;;;;;;7.99;75.91;99243.56;5097706;28;19919;-42
2023/01/16 13:00:52;;;;;;;;;;;;;;;8.21;73.85;99231.00;5098026;28;19974;-42
2023/01/16 13:03:25;;;;;;;;;;;;;;;7.90;73.35;99226.19;5095179;28;20384;-37
2023/01/16 13:05:53;;;;;;;;;;;;;;;8.26;71.96;99222.44;5090694;28;19991;-36
2023/01/16 13:08:24;;;;;;;;;;;;;;;8.07;72.76;99216.88;5093909;28;19940;-37
2023/01/16 13:13:40;;;;;;;;;;;;;;;8.82;70.45;99221.31;5093896;28;19931;-36
2023/01/16 13:16:05;;;;;;;;;;;;;;;8.33;71.26;99229.38;5093560;28;20323;-37
2023/01/16 13:18:38;;;;;;;;;;;;;;;8.54;70.18;99217.00;5093531;28;19920;-37
2023/01/16 13:21:05;;;;;;;;;;;;;;;8.47;71.28;99218.81;5093875;28;19916;-37
2023/01/16 13:23:39;;;;;;;;;;;;;;;8.19;71.59;99215.28;5093863;28;19919;-36
2023/01/16 13:26:07;;;;;;;;;;;;;;;8.07;72.85;99211.56;5095138;28;19922;-36
2023/01/16 13:28:37;;;;;;;;;;;;;;;8.18;73.59;99212.84;5113425;28;20271;-36
2023/01/16 13:31:07;;;;;;;;;;;;;;;8.48;71.25;99202.72;5109396;28;19912;-36
2023/01/16 13:33:35;;;;;;;;;;;;;;;8.13;71.66;99196.72;5093162;28;20261;-37
2023/01/16 13:36:09;;;;;;;;;;;;;;;8.34;70.96;99201.88;5092682;28;19912;-37
2023/01/16 13:38:46;;;;;;;;;;;;;;;7.88;73.05;99188.50;5093268;28;19912;-37
2023/01/16 13:41:17;;;;;;;;;;;;;;;8.01;71.69;99197.31;5093087;28;19916;-37
2023/01/16 13:46:27;;;;;;;;;;;;;;;7.89;71.75;99185.66;5091386;28;19958;-36
2023/01/16 13:48:54;;;;;;;;;;;;;;;7.73;73.14;99176.25;5091528;28;19916;-38
2023/01/16 13:51:22;;;;;;;;;;;;;;;7.36;74.72;99162.44;5091834;28;19940;-37
2023/01/16 13:53:50;;;;;;;;;;;;;;;7.48;75.08;99170.63;5091766;28;20311;-36
2023/01/16 13:56:20;;;;;;;;;;;;;;;7.46;75.03;99177.13;5091599;28;19912;-37
2023/01/16 13:58:48;;;;;;;;;;;;;;;7.49;74.59;99168.81;5091650;28;19947;-36
2023/01/16 14:01:33;;;;;;;;;;;;;;;7.56;74.52;99162.53;5093498;28;19912;-37
2023/01/16 14:04:14;;;;;;;;;;;;;;;7.50;74.54;99146.59;5092921;28;19930;-37
2023/01/16 14:06:48;;;;;;;;;;;;;;;7.31;75.86;99140.22;5093309;28;19919;-37
2023/01/16 14:09:14;;;;;;;;;;;;;;;7.32;76.25;99137.38;5093200;28;19935;-36